sensor_id;sensor_type;location;lat;lon;timestamp;P1;durP1;ratioP1;P2;durP2;ratioP2
80842;SDS011;70255;53.686;10.778;2023-06-14T00:00:20;5.67;;;1.73;;
80842;SDS011;70255;53.686;10.778;2023-06-14T00:02:46;3.92;;;1.85;;
80842;SDS011;70255;53.686;10.778;2023-06-14T00:05:11;6.53;;;1.75;;
80842;SDS011;70255;53.686;10.778;2023-06-14T00:07:40;6.35;;;1.50;;
80842;SDS011;70255;53.686;10.778;2023-06-14T00:10:07;3.80;;;1.52;;
80842;SDS011;70255;53.686;10.778;2023-06-14T00:12:32;4.68;;;2.10;;
80842;SDS011;70255;53.686;10.778;2023-06-14T00:14:58;4.10;;;1.80;;
80842;SDS011;70255;53.686;10.778;2023-06-14T00:17:23;4.23;;;1.60;;
80842;SDS011;70255;53.686;10.778;2023-06-14T00:19:49;5.22;;;1.90;;
80842;SDS011;70255;53.686;10.778;2023-06-14T00:22:15;4.45;;;1.80;;
80842;SDS011;70255;53.686;10.778;2023-06-14T00:24:40;4.80;;;1.60;;
80842;SDS011;70255;53.686;10.778;2023-06-14T00:27:05;3.40;;;1.60;;
80842;SDS011;70255;53.686;10.778;2023-06-14T00:29:31;7.15;;;2.20;;
80842;SDS011;70255;53.686;10.778;2023-06-14T00:31:56;3.77;;;1.90;;
80842;SDS011;70255;53.686;10.778;2023-06-14T00:34:21;4.23;;;1.90;;
80842;SDS011;70255;53.686;10.778;2023-06-14T00:36:47;7.73;;;1.80;;
80842;SDS011;70255;53.686;10.778;2023-06-14T00:39:12;3.00;;;1.33;;
80842;SDS011;70255;53.686;10.778;2023-06-14T00:41:37;4.50;;;1.80;;
80842;SDS011;70255;53.686;10.778;2023-06-14T00:44:02;3.85;;;1.73;;
80842;SDS011;70255;53.686;10.778;2023-06-14T00:46:28;5.32;;;1.92;;
80842;SDS011;70255;53.686;10.778;2023-06-14T00:48:53;3.53;;;1.77;;
80842;SDS011;70255;53.686;10.778;2023-06-14T00:51:19;4.05;;;1.80;;
80842;SDS011;70255;53.686;10.778;2023-06-14T00:53:44;4.60;;;1.70;;
80842;SDS011;70255;53.686;10.778;2023-06-14T00:56:12;4.28;;;1.60;;
80842;SDS011;70255;53.686;10.778;2023-06-14T00:58:38;3.80;;;1.75;;
80842;SDS011;70255;53.686;10.778;2023-06-14T01:01:03;8.23;;;1.75;;
80842;SDS011;70255;53.686;10.778;2023-06-14T01:03:29;3.70;;;1.35;;
80842;SDS011;70255;53.686;10.778;2023-06-14T01:06:05;4.30;;;1.88;;
80842;SDS011;70255;53.686;10.778;2023-06-14T01:08:50;3.83;;;1.80;;
80842;SDS011;70255;53.686;10.778;2023-06-14T01:11:18;3.53;;;1.63;;
80842;SDS011;70255;53.686;10.778;2023-06-14T01:13:47;4.07;;;1.50;;
80842;SDS011;70255;53.686;10.778;2023-06-14T01:16:12;4.45;;;2.00;;
80842;SDS011;70255;53.686;10.778;2023-06-14T01:18:39;3.78;;;1.90;;
80842;SDS011;70255;53.686;10.778;2023-06-14T01:21:19;6.25;;;1.85;;
80842;SDS011;70255;53.686;10.778;2023-06-14T01:23:45;5.15;;;2.50;;
80842;SDS011;70255;53.686;10.778;2023-06-14T01:26:10;7.43;;;2.15;;
80842;SDS011;70255;53.686;10.778;2023-06-14T01:28:37;6.93;;;3.53;;
80842;SDS011;70255;53.686;10.778;2023-06-14T01:31:02;4.27;;;2.20;;
80842;SDS011;70255;53.686;10.778;2023-06-14T01:33:29;9.30;;;2.25;;
80842;SDS011;70255;53.686;10.778;2023-06-14T01:35:56;4.88;;;2.22;;
80842;SDS011;70255;53.686;10.778;2023-06-14T01:38:25;6.85;;;2.53;;
80842;SDS011;70255;53.686;10.778;2023-06-14T01:40:51;5.93;;;1.65;;
80842;SDS011;70255;53.686;10.778;2023-06-14T01:43:18;4.82;;;2.20;;
80842;SDS011;70255;53.686;10.778;2023-06-14T01:45:44;4.97;;;2.15;;
80842;SDS011;70255;53.686;10.778;2023-06-14T01:48:10;5.45;;;2.08;;
80842;SDS011;70255;53.686;10.778;2023-06-14T01:50:36;4.95;;;2.10;;
80842;SDS011;70255;53.686;10.778;2023-06-14T01:53:01;4.13;;;1.63;;
80842;SDS011;70255;53.686;10.778;2023-06-14T01:55:26;6.67;;;2.03;;
80842;SDS011;70255;53.686;10.778;2023-06-14T01:57:52;4.30;;;2.20;;
80842;SDS011;70255;53.686;10.778;2023-06-14T02:00:17;5.18;;;2.00;;
80842;SDS011;70255;53.686;10.778;2023-06-14T02:02:43;3.95;;;1.95;;
80842;SDS011;70255;53.686;10.778;2023-06-14T02:05:08;5.65;;;2.35;;
80842;SDS011;70255;53.686;10.778;2023-06-14T02:07:34;4.63;;;2.33;;
80842;SDS011;70255;53.686;10.778;2023-06-14T02:09:59;5.18;;;2.42;;
80842;SDS011;70255;53.686;10.778;2023-06-14T02:12:24;3.93;;;1.83;;
80842;SDS011;70255;53.686;10.778;2023-06-14T02:14:50;4.38;;;1.95;;
80842;SDS011;70255;53.686;10.778;2023-06-14T02:17:15;5.57;;;2.23;;
80842;SDS011;70255;53.686;10.778;2023-06-14T02:19:41;7.68;;;3.05;;
80842;SDS011;70255;53.686;10.778;2023-06-14T02:22:06;7.28;;;2.30;;
80842;SDS011;70255;53.686;10.778;2023-06-14T02:24:31;5.95;;;2.60;;
80842;SDS011;70255;53.686;10.778;2023-06-14T02:26:57;5.53;;;2.20;;
80842;SDS011;70255;53.686;10.778;2023-06-14T02:29:22;4.83;;;2.17;;
80842;SDS011;70255;53.686;10.778;2023-06-14T02:31:47;4.93;;;2.20;;
80842;SDS011;70255;53.686;10.778;2023-06-14T02:34:22;5.32;;;2.10;;
80842;SDS011;70255;53.686;10.778;2023-06-14T02:36:47;6.22;;;2.60;;
80842;SDS011;70255;53.686;10.778;2023-06-14T02:39:13;7.38;;;2.20;;
80842;SDS011;70255;53.686;10.778;2023-06-14T02:41:38;5.20;;;2.33;;
80842;SDS011;70255;53.686;10.778;2023-06-14T02:44:03;5.32;;;2.50;;
80842;SDS011;70255;53.686;10.778;2023-06-14T02:46:29;6.65;;;2.75;;
80842;SDS011;70255;53.686;10.778;2023-06-14T02:48:54;6.25;;;3.15;;
80842;SDS011;70255;53.686;10.778;2023-06-14T02:51:19;5.43;;;2.50;;
80842;SDS011;70255;53.686;10.778;2023-06-14T02:53:45;7.70;;;3.10;;
80842;SDS011;70255;53.686;10.778;2023-06-14T02:56:10;8.27;;;2.80;;
80842;SDS011;70255;53.686;10.778;2023-06-14T02:58:36;6.45;;;3.15;;
80842;SDS011;70255;53.686;10.778;2023-06-14T03:01:02;7.65;;;3.00;;
80842;SDS011;70255;53.686;10.778;2023-06-14T03:03:27;6.43;;;3.10;;
80842;SDS011;70255;53.686;10.778;2023-06-14T03:05:53;5.47;;;2.50;;
80842;SDS011;70255;53.686;10.778;2023-06-14T03:08:19;6.20;;;2.90;;
80842;SDS011;70255;53.686;10.778;2023-06-14T03:10:47;5.27;;;2.80;;
80842;SDS011;70255;53.686;10.778;2023-06-14T03:13:13;5.22;;;2.65;;
80842;SDS011;70255;53.686;10.778;2023-06-14T03:15:38;5.32;;;2.67;;
80842;SDS011;70255;53.686;10.778;2023-06-14T03:18:07;6.18;;;3.03;;
80842;SDS011;70255;53.686;10.778;2023-06-14T03:20:33;8.23;;;3.40;;
80842;SDS011;70255;53.686;10.778;2023-06-14T03:23:02;7.63;;;2.90;;
80842;SDS011;70255;53.686;10.778;2023-06-14T03:25:27;6.20;;;2.95;;
80842;SDS011;70255;53.686;10.778;2023-06-14T03:27:54;8.00;;;2.72;;
80842;SDS011;70255;53.686;10.778;2023-06-14T03:30:20;6.57;;;3.08;;
80842;SDS011;70255;53.686;10.778;2023-06-14T03:32:45;5.82;;;2.88;;
80842;SDS011;70255;53.686;10.778;2023-06-14T03:35:10;7.53;;;3.33;;
80842;SDS011;70255;53.686;10.778;2023-06-14T03:37:41;7.35;;;3.35;;
80842;SDS011;70255;53.686;10.778;2023-06-14T03:40:07;10.53;;;3.33;;
80842;SDS011;70255;53.686;10.778;2023-06-14T03:42:32;7.18;;;3.00;;
80842;SDS011;70255;53.686;10.778;2023-06-14T03:44:57;6.97;;;3.30;;
80842;SDS011;70255;53.686;10.778;2023-06-14T03:47:22;9.47;;;3.40;;
80842;SDS011;70255;53.686;10.778;2023-06-14T03:49:48;5.33;;;2.63;;
80842;SDS011;70255;53.686;10.778;2023-06-14T03:52:13;5.63;;;2.87;;
80842;SDS011;70255;53.686;10.778;2023-06-14T03:54:39;6.13;;;3.15;;
80842;SDS011;70255;53.686;10.778;2023-06-14T03:57:04;8.55;;;3.55;;
80842;SDS011;70255;53.686;10.778;2023-06-14T03:59:31;8.55;;;3.15;;
80842;SDS011;70255;53.686;10.778;2023-06-14T04:01:56;6.77;;;2.60;;
80842;SDS011;70255;53.686;10.778;2023-06-14T04:04:21;5.67;;;2.90;;
80842;SDS011;70255;53.686;10.778;2023-06-14T04:06:46;9.52;;;3.17;;
80842;SDS011;70255;53.686;10.778;2023-06-14T04:09:13;8.35;;;3.10;;
80842;SDS011;70255;53.686;10.778;2023-06-14T04:11:38;9.23;;;3.73;;
80842;SDS011;70255;53.686;10.778;2023-06-14T04:14:05;5.93;;;2.90;;
80842;SDS011;70255;53.686;10.778;2023-06-14T04:16:30;8.77;;;3.45;;
80842;SDS011;70255;53.686;10.778;2023-06-14T04:18:56;8.48;;;3.30;;
80842;SDS011;70255;53.686;10.778;2023-06-14T04:21:23;7.13;;;2.90;;
80842;SDS011;70255;53.686;10.778;2023-06-14T04:23:48;5.35;;;2.90;;
80842;SDS011;70255;53.686;10.778;2023-06-14T04:26:13;8.43;;;3.27;;
80842;SDS011;70255;53.686;10.778;2023-06-14T04:28:39;7.28;;;3.10;;
80842;SDS011;70255;53.686;10.778;2023-06-14T04:31:08;5.43;;;2.80;;
80842;SDS011;70255;53.686;10.778;2023-06-14T04:33:36;7.07;;;3.10;;
80842;SDS011;70255;53.686;10.778;2023-06-14T04:36:10;8.38;;;3.17;;
80842;SDS011;70255;53.686;10.778;2023-06-14T04:38:42;11.38;;;3.17;;
80842;SDS011;70255;53.686;10.778;2023-06-14T04:41:10;6.65;;;3.00;;
80842;SDS011;70255;53.686;10.778;2023-06-14T04:43:36;7.57;;;3.00;;
80842;SDS011;70255;53.686;10.778;2023-06-14T04:46:06;7.03;;;3.50;;
80842;SDS011;70255;53.686;10.778;2023-06-14T04:48:35;6.22;;;2.80;;
80842;SDS011;70255;53.686;10.778;2023-06-14T04:51:00;6.82;;;2.78;;
80842;SDS011;70255;53.686;10.778;2023-06-14T04:53:25;6.57;;;2.60;;
80842;SDS011;70255;53.686;10.778;2023-06-14T04:55:54;6.53;;;3.13;;
80842;SDS011;70255;53.686;10.778;2023-06-14T04:58:19;6.53;;;2.63;;
80842;SDS011;70255;53.686;10.778;2023-06-14T05:00:45;8.93;;;2.80;;
80842;SDS011;70255;53.686;10.778;2023-06-14T05:03:10;8.90;;;2.50;;
80842;SDS011;70255;53.686;10.778;2023-06-14T05:05:38;5.43;;;2.67;;
80842;SDS011;70255;53.686;10.778;2023-06-14T05:08:03;8.13;;;2.85;;
80842;SDS011;70255;53.686;10.778;2023-06-14T05:10:28;5.88;;;2.72;;
80842;SDS011;70255;53.686;10.778;2023-06-14T05:12:54;6.27;;;2.97;;
80842;SDS011;70255;53.686;10.778;2023-06-14T05:15:19;5.25;;;2.65;;
80842;SDS011;70255;53.686;10.778;2023-06-14T05:17:45;6.23;;;2.80;;
80842;SDS011;70255;53.686;10.778;2023-06-14T05:20:18;6.07;;;2.85;;
80842;SDS011;70255;53.686;10.778;2023-06-14T05:22:43;7.65;;;2.80;;
80842;SDS011;70255;53.686;10.778;2023-06-14T05:25:08;7.53;;;2.70;;
80842;SDS011;70255;53.686;10.778;2023-06-14T05:27:33;5.97;;;2.40;;
80842;SDS011;70255;53.686;10.778;2023-06-14T05:30:00;7.18;;;2.97;;
80842;SDS011;70255;53.686;10.778;2023-06-14T05:32:25;7.10;;;3.00;;
80842;SDS011;70255;53.686;10.778;2023-06-14T05:34:51;5.10;;;2.80;;
80842;SDS011;70255;53.686;10.778;2023-06-14T05:37:16;5.38;;;3.08;;
80842;SDS011;70255;53.686;10.778;2023-06-14T05:39:42;5.32;;;2.75;;
80842;SDS011;70255;53.686;10.778;2023-06-14T05:42:07;7.27;;;2.57;;
80842;SDS011;70255;53.686;10.778;2023-06-14T05:44:32;6.07;;;3.03;;
80842;SDS011;70255;53.686;10.778;2023-06-14T05:46:58;7.30;;;2.73;;
80842;SDS011;70255;53.686;10.778;2023-06-14T05:49:23;10.27;;;3.23;;
80842;SDS011;70255;53.686;10.778;2023-06-14T05:51:48;6.47;;;2.27;;
80842;SDS011;70255;53.686;10.778;2023-06-14T05:54:13;5.73;;;2.57;;
80842;SDS011;70255;53.686;10.778;2023-06-14T05:56:38;5.33;;;2.83;;
80842;SDS011;70255;53.686;10.778;2023-06-14T05:59:04;6.45;;;2.72;;
80842;SDS011;70255;53.686;10.778;2023-06-14T06:01:29;5.78;;;2.30;;
80842;SDS011;70255;53.686;10.778;2023-06-14T06:03:55;10.95;;;2.30;;
80842;SDS011;70255;53.686;10.778;2023-06-14T06:06:20;5.10;;;2.37;;
80842;SDS011;70255;53.686;10.778;2023-06-14T06:08:46;9.02;;;2.58;;
80842;SDS011;70255;53.686;10.778;2023-06-14T06:11:11;5.30;;;2.53;;
80842;SDS011;70255;53.686;10.778;2023-06-14T06:13:36;7.70;;;2.37;;
80842;SDS011;70255;53.686;10.778;2023-06-14T06:16:04;5.95;;;2.50;;
80842;SDS011;70255;53.686;10.778;2023-06-14T06:18:29;5.57;;;2.95;;
80842;SDS011;70255;53.686;10.778;2023-06-14T06:20:55;5.60;;;2.75;;
80842;SDS011;70255;53.686;10.778;2023-06-14T06:23:20;8.47;;;2.50;;
80842;SDS011;70255;53.686;10.778;2023-06-14T06:25:45;5.90;;;2.73;;
80842;SDS011;70255;53.686;10.778;2023-06-14T06:28:11;6.78;;;2.90;;
80842;SDS011;70255;53.686;10.778;2023-06-14T06:30:36;5.00;;;2.57;;
80842;SDS011;70255;53.686;10.778;2023-06-14T06:33:01;6.53;;;2.53;;
80842;SDS011;70255;53.686;10.778;2023-06-14T06:35:28;3.75;;;1.92;;
80842;SDS011;70255;53.686;10.778;2023-06-14T06:37:53;4.40;;;1.80;;
80842;SDS011;70255;53.686;10.778;2023-06-14T06:40:19;6.70;;;2.10;;
80842;SDS011;70255;53.686;10.778;2023-06-14T06:42:44;5.57;;;1.92;;
80842;SDS011;70255;53.686;10.778;2023-06-14T06:45:09;3.97;;;1.80;;
80842;SDS011;70255;53.686;10.778;2023-06-14T06:47:35;4.03;;;2.15;;
80842;SDS011;70255;53.686;10.778;2023-06-14T06:50:00;4.43;;;2.23;;
80842;SDS011;70255;53.686;10.778;2023-06-14T06:52:25;4.10;;;2.03;;
80842;SDS011;70255;53.686;10.778;2023-06-14T06:54:51;3.80;;;2.30;;
80842;SDS011;70255;53.686;10.778;2023-06-14T06:57:19;7.13;;;2.13;;
80842;SDS011;70255;53.686;10.778;2023-06-14T06:59:45;3.78;;;2.08;;
80842;SDS011;70255;53.686;10.778;2023-06-14T07:02:10;6.50;;;2.57;;
80842;SDS011;70255;53.686;10.778;2023-06-14T07:04:36;5.27;;;2.07;;
80842;SDS011;70255;53.686;10.778;2023-06-14T07:07:02;6.20;;;2.45;;
80842;SDS011;70255;53.686;10.778;2023-06-14T07:09:27;5.45;;;2.25;;
80842;SDS011;70255;53.686;10.778;2023-06-14T07:11:53;3.47;;;1.80;;
80842;SDS011;70255;53.686;10.778;2023-06-14T07:14:18;4.70;;;2.10;;
80842;SDS011;70255;53.686;10.778;2023-06-14T07:16:43;5.78;;;2.08;;
80842;SDS011;70255;53.686;10.778;2023-06-14T07:19:09;3.63;;;2.20;;
80842;SDS011;70255;53.686;10.778;2023-06-14T07:21:35;3.42;;;1.90;;
80842;SDS011;70255;53.686;10.778;2023-06-14T07:24:02;4.32;;;2.10;;
80842;SDS011;70255;53.686;10.778;2023-06-14T07:26:28;3.08;;;1.80;;
80842;SDS011;70255;53.686;10.778;2023-06-14T07:28:53;4.53;;;1.93;;
80842;SDS011;70255;53.686;10.778;2023-06-14T07:31:18;3.83;;;2.13;;
80842;SDS011;70255;53.686;10.778;2023-06-14T07:33:44;4.88;;;1.92;;
80842;SDS011;70255;53.686;10.778;2023-06-14T07:36:09;5.10;;;1.67;;
80842;SDS011;70255;53.686;10.778;2023-06-14T07:38:35;5.10;;;2.00;;
80842;SDS011;70255;53.686;10.778;2023-06-14T07:41:01;3.53;;;2.08;;
80842;SDS011;70255;53.686;10.778;2023-06-14T07:43:26;5.45;;;2.00;;
80842;SDS011;70255;53.686;10.778;2023-06-14T07:45:52;6.40;;;2.08;;
80842;SDS011;70255;53.686;10.778;2023-06-14T07:48:17;3.70;;;2.33;;
80842;SDS011;70255;53.686;10.778;2023-06-14T07:50:43;4.88;;;2.10;;
80842;SDS011;70255;53.686;10.778;2023-06-14T07:53:08;4.20;;;2.13;;
80842;SDS011;70255;53.686;10.778;2023-06-14T07:55:33;3.60;;;1.97;;
80842;SDS011;70255;53.686;10.778;2023-06-14T07:58:01;5.00;;;2.08;;
80842;SDS011;70255;53.686;10.778;2023-06-14T08:00:27;6.45;;;2.08;;
80842;SDS011;70255;53.686;10.778;2023-06-14T08:02:52;7.37;;;2.20;;
80842;SDS011;70255;53.686;10.778;2023-06-14T08:05:23;4.85;;;2.60;;
80842;SDS011;70255;53.686;10.778;2023-06-14T08:07:48;4.93;;;2.20;;
80842;SDS011;70255;53.686;10.778;2023-06-14T08:10:14;6.67;;;2.33;;
80842;SDS011;70255;53.686;10.778;2023-06-14T08:12:39;4.60;;;2.20;;
80842;SDS011;70255;53.686;10.778;2023-06-14T08:15:04;5.53;;;2.00;;
80842;SDS011;70255;53.686;10.778;2023-06-14T08:17:30;7.15;;;2.38;;
80842;SDS011;70255;53.686;10.778;2023-06-14T08:19:55;4.13;;;1.88;;
80842;SDS011;70255;53.686;10.778;2023-06-14T08:22:22;5.85;;;2.13;;
80842;SDS011;70255;53.686;10.778;2023-06-14T08:24:49;5.35;;;2.60;;
80842;SDS011;70255;53.686;10.778;2023-06-14T08:27:14;4.17;;;2.50;;
80842;SDS011;70255;53.686;10.778;2023-06-14T08:29:40;4.38;;;2.10;;
80842;SDS011;70255;53.686;10.778;2023-06-14T08:32:06;4.18;;;2.30;;
80842;SDS011;70255;53.686;10.778;2023-06-14T08:34:31;5.28;;;2.30;;
80842;SDS011;70255;53.686;10.778;2023-06-14T08:36:57;4.77;;;2.30;;
80842;SDS011;70255;53.686;10.778;2023-06-14T08:39:22;6.15;;;2.28;;
80842;SDS011;70255;53.686;10.778;2023-06-14T08:41:47;3.85;;;2.28;;
80842;SDS011;70255;53.686;10.778;2023-06-14T08:44:19;5.53;;;2.40;;
80842;SDS011;70255;53.686;10.778;2023-06-14T08:46:44;4.40;;;2.45;;
80842;SDS011;70255;53.686;10.778;2023-06-14T08:49:13;6.30;;;2.53;;
80842;SDS011;70255;53.686;10.778;2023-06-14T08:51:41;4.70;;;2.30;;
80842;SDS011;70255;53.686;10.778;2023-06-14T08:54:08;7.70;;;2.45;;
80842;SDS011;70255;53.686;10.778;2023-06-14T08:56:35;7.53;;;2.58;;
80842;SDS011;70255;53.686;10.778;2023-06-14T08:59:02;5.68;;;2.90;;
80842;SDS011;70255;53.686;10.778;2023-06-14T09:01:29;4.57;;;2.97;;
80842;SDS011;70255;53.686;10.778;2023-06-14T09:03:54;4.22;;;2.40;;
80842;SDS011;70255;53.686;10.778;2023-06-14T09:06:22;3.95;;;2.58;;
80842;SDS011;70255;53.686;10.778;2023-06-14T09:08:49;8.05;;;2.47;;
80842;SDS011;70255;53.686;10.778;2023-06-14T09:11:15;4.80;;;2.33;;
80842;SDS011;70255;53.686;10.778;2023-06-14T09:13:41;4.93;;;2.40;;
80842;SDS011;70255;53.686;10.778;2023-06-14T09:16:06;5.78;;;2.20;;
80842;SDS011;70255;53.686;10.778;2023-06-14T09:18:39;6.47;;;2.42;;
80842;SDS011;70255;53.686;10.778;2023-06-14T09:21:06;5.93;;;2.45;;
80842;SDS011;70255;53.686;10.778;2023-06-14T09:23:38;5.65;;;2.53;;
80842;SDS011;70255;53.686;10.778;2023-06-14T09:26:11;7.13;;;2.53;;
80842;SDS011;70255;53.686;10.778;2023-06-14T09:28:36;4.15;;;2.67;;
80842;SDS011;70255;53.686;10.778;2023-06-14T09:31:05;5.80;;;2.13;;
80842;SDS011;70255;53.686;10.778;2023-06-14T09:33:33;6.22;;;2.55;;
80842;SDS011;70255;53.686;10.778;2023-06-14T09:35:59;6.50;;;2.53;;
80842;SDS011;70255;53.686;10.778;2023-06-14T09:38:24;4.80;;;2.67;;
80842;SDS011;70255;53.686;10.778;2023-06-14T09:40:49;5.20;;;2.83;;
80842;SDS011;70255;53.686;10.778;2023-06-14T09:43:15;6.22;;;2.72;;
80842;SDS011;70255;53.686;10.778;2023-06-14T09:45:41;5.57;;;2.42;;
80842;SDS011;70255;53.686;10.778;2023-06-14T09:48:10;5.40;;;2.58;;
80842;SDS011;70255;53.686;10.778;2023-06-14T09:50:36;4.50;;;2.53;;
80842;SDS011;70255;53.686;10.778;2023-06-14T09:53:10;9.20;;;2.50;;
80842;SDS011;70255;53.686;10.778;2023-06-14T09:55:36;5.68;;;2.65;;
80842;SDS011;70255;53.686;10.778;2023-06-14T09:58:04;4.85;;;2.42;;
80842;SDS011;70255;53.686;10.778;2023-06-14T10:00:30;7.65;;;2.97;;
80842;SDS011;70255;53.686;10.778;2023-06-14T10:02:59;4.93;;;2.60;;
80842;SDS011;70255;53.686;10.778;2023-06-14T10:05:26;5.47;;;2.53;;
80842;SDS011;70255;53.686;10.778;2023-06-14T10:07:55;5.03;;;2.67;;
80842;SDS011;70255;53.686;10.778;2023-06-14T10:10:24;5.65;;;2.78;;
80842;SDS011;70255;53.686;10.778;2023-06-14T10:12:49;6.20;;;2.53;;
80842;SDS011;70255;53.686;10.778;2023-06-14T10:15:17;5.18;;;2.42;;
80842;SDS011;70255;53.686;10.778;2023-06-14T10:17:47;6.30;;;2.67;;
80842;SDS011;70255;53.686;10.778;2023-06-14T10:20:19;4.90;;;2.92;;
80842;SDS011;70255;53.686;10.778;2023-06-14T10:22:50;6.40;;;2.80;;
80842;SDS011;70255;53.686;10.778;2023-06-14T10:25:37;5.05;;;2.67;;
80842;SDS011;70255;53.686;10.778;2023-06-14T10:28:02;7.95;;;2.42;;
80842;SDS011;70255;53.686;10.778;2023-06-14T10:30:28;5.28;;;2.53;;
80842;SDS011;70255;53.686;10.778;2023-06-14T10:33:03;4.83;;;2.33;;
80842;SDS011;70255;53.686;10.778;2023-06-14T10:35:29;6.65;;;2.60;;
80842;SDS011;70255;53.686;10.778;2023-06-14T10:37:54;5.75;;;2.22;;
80842;SDS011;70255;53.686;10.778;2023-06-14T10:40:32;6.30;;;2.65;;
80842;SDS011;70255;53.686;10.778;2023-06-14T10:42:58;7.55;;;2.63;;
80842;SDS011;70255;53.686;10.778;2023-06-14T10:45:23;5.70;;;2.43;;
80842;SDS011;70255;53.686;10.778;2023-06-14T10:47:48;5.50;;;2.07;;
80842;SDS011;70255;53.686;10.778;2023-06-14T10:50:14;5.10;;;2.13;;
80842;SDS011;70255;53.686;10.778;2023-06-14T10:52:42;6.70;;;2.30;;
80842;SDS011;70255;53.686;10.778;2023-06-14T10:55:14;5.82;;;2.28;;
80842;SDS011;70255;53.686;10.778;2023-06-14T10:57:41;5.95;;;2.25;;
80842;SDS011;70255;53.686;10.778;2023-06-14T11:00:07;5.20;;;2.10;;
80842;SDS011;70255;53.686;10.778;2023-06-14T11:05:08;4.13;;;2.27;;
80842;SDS011;70255;53.686;10.778;2023-06-14T11:12:40;7.63;;;2.45;;
80842;SDS011;70255;53.686;10.778;2023-06-14T11:15:07;5.35;;;2.03;;
80842;SDS011;70255;53.686;10.778;2023-06-14T11:17:34;4.50;;;2.20;;
80842;SDS011;70255;53.686;10.778;2023-06-14T11:20:11;9.90;;;2.40;;
80842;SDS011;70255;53.686;10.778;2023-06-14T11:22:41;4.03;;;2.05;;
80842;SDS011;70255;53.686;10.778;2023-06-14T11:25:08;4.50;;;2.22;;
80842;SDS011;70255;53.686;10.778;2023-06-14T11:27:33;4.05;;;2.15;;
80842;SDS011;70255;53.686;10.778;2023-06-14T11:29:59;3.73;;;2.03;;
80842;SDS011;70255;53.686;10.778;2023-06-14T11:32:24;7.07;;;2.05;;
80842;SDS011;70255;53.686;10.778;2023-06-14T11:34:49;3.60;;;1.83;;
80842;SDS011;70255;53.686;10.778;2023-06-14T11:37:16;6.00;;;2.10;;
80842;SDS011;70255;53.686;10.778;2023-06-14T11:39:44;6.88;;;2.00;;
80842;SDS011;70255;53.686;10.778;2023-06-14T11:42:13;7.47;;;2.13;;
80842;SDS011;70255;53.686;10.778;2023-06-14T11:44:38;5.22;;;1.92;;
80842;SDS011;70255;53.686;10.778;2023-06-14T11:47:04;3.73;;;2.30;;
80842;SDS011;70255;53.686;10.778;2023-06-14T11:49:29;5.50;;;2.60;;
80842;SDS011;70255;53.686;10.778;2023-06-14T11:51:59;4.10;;;2.38;;
80842;SDS011;70255;53.686;10.778;2023-06-14T11:54:25;6.50;;;2.08;;
80842;SDS011;70255;53.686;10.778;2023-06-14T11:56:50;5.57;;;2.17;;
80842;SDS011;70255;53.686;10.778;2023-06-14T11:59:16;4.20;;;2.20;;
80842;SDS011;70255;53.686;10.778;2023-06-14T12:01:42;5.60;;;2.40;;
80842;SDS011;70255;53.686;10.778;2023-06-14T12:04:08;3.75;;;2.22;;
80842;SDS011;70255;53.686;10.778;2023-06-14T12:06:33;4.53;;;2.05;;
80842;SDS011;70255;53.686;10.778;2023-06-14T12:09:03;7.63;;;2.05;;
80842;SDS011;70255;53.686;10.778;2023-06-14T12:11:33;4.13;;;1.67;;
80842;SDS011;70255;53.686;10.778;2023-06-14T12:13:59;4.47;;;1.95;;
80842;SDS011;70255;53.686;10.778;2023-06-14T12:16:29;3.92;;;2.08;;
80842;SDS011;70255;53.686;10.778;2023-06-14T12:18:55;5.00;;;2.13;;
80842;SDS011;70255;53.686;10.778;2023-06-14T12:21:22;3.78;;;1.95;;
80842;SDS011;70255;53.686;10.778;2023-06-14T12:23:48;5.18;;;2.08;;
80842;SDS011;70255;53.686;10.778;2023-06-14T12:26:17;5.72;;;2.20;;
80842;SDS011;70255;53.686;10.778;2023-06-14T12:28:44;7.25;;;2.25;;
80842;SDS011;70255;53.686;10.778;2023-06-14T12:31:11;4.28;;;2.25;;
80842;SDS011;70255;53.686;10.778;2023-06-14T12:33:37;3.60;;;1.80;;
80842;SDS011;70255;53.686;10.778;2023-06-14T12:36:06;5.20;;;2.30;;
80842;SDS011;70255;53.686;10.778;2023-06-14T12:38:32;5.43;;;2.10;;
80842;SDS011;70255;53.686;10.778;2023-06-14T12:40:57;6.40;;;2.40;;
80842;SDS011;70255;53.686;10.778;2023-06-14T12:43:23;4.37;;;2.10;;
80842;SDS011;70255;53.686;10.778;2023-06-14T12:45:48;8.27;;;2.40;;
80842;SDS011;70255;53.686;10.778;2023-06-14T12:48:13;5.15;;;2.30;;
80842;SDS011;70255;53.686;10.778;2023-06-14T12:50:38;4.10;;;2.10;;
80842;SDS011;70255;53.686;10.778;2023-06-14T12:53:04;8.83;;;2.40;;
80842;SDS011;70255;53.686;10.778;2023-06-14T12:55:29;4.95;;;2.25;;
80842;SDS011;70255;53.686;10.778;2023-06-14T12:57:55;7.60;;;2.05;;
80842;SDS011;70255;53.686;10.778;2023-06-14T13:00:20;5.00;;;1.80;;
80842;SDS011;70255;53.686;10.778;2023-06-14T13:02:46;5.85;;;2.22;;
80842;SDS011;70255;53.686;10.778;2023-06-14T13:05:11;5.47;;;2.50;;
80842;SDS011;70255;53.686;10.778;2023-06-14T13:07:37;5.53;;;2.33;;
80842;SDS011;70255;53.686;10.778;2023-06-14T13:10:02;4.70;;;2.10;;
80842;SDS011;70255;53.686;10.778;2023-06-14T13:12:28;4.70;;;2.10;;
80842;SDS011;70255;53.686;10.778;2023-06-14T13:14:53;5.27;;;2.07;;
80842;SDS011;70255;53.686;10.778;2023-06-14T13:17:18;5.93;;;2.30;;
80842;SDS011;70255;53.686;10.778;2023-06-14T13:19:43;5.03;;;2.00;;
80842;SDS011;70255;53.686;10.778;2023-06-14T13:22:09;4.60;;;1.90;;
80842;SDS011;70255;53.686;10.778;2023-06-14T13:24:34;4.70;;;1.77;;
80842;SDS011;70255;53.686;10.778;2023-06-14T13:27:00;7.75;;;2.13;;
80842;SDS011;70255;53.686;10.778;2023-06-14T13:29:25;6.03;;;2.03;;
80842;SDS011;70255;53.686;10.778;2023-06-14T13:31:51;5.22;;;1.90;;
80842;SDS011;70255;53.686;10.778;2023-06-14T13:34:16;6.38;;;2.00;;
80842;SDS011;70255;53.686;10.778;2023-06-14T13:36:41;5.90;;;2.20;;
80842;SDS011;70255;53.686;10.778;2023-06-14T13:39:07;5.93;;;2.23;;
80842;SDS011;70255;53.686;10.778;2023-06-14T13:41:32;4.17;;;1.60;;
80842;SDS011;70255;53.686;10.778;2023-06-14T13:43:59;4.22;;;2.30;;
80842;SDS011;70255;53.686;10.778;2023-06-14T13:46:24;3.72;;;1.90;;
80842;SDS011;70255;53.686;10.778;2023-06-14T13:48:50;5.38;;;2.03;;
80842;SDS011;70255;53.686;10.778;2023-06-14T13:51:15;6.80;;;2.07;;
80842;SDS011;70255;53.686;10.778;2023-06-14T13:53:42;6.07;;;1.98;;
80842;SDS011;70255;53.686;10.778;2023-06-14T13:56:08;3.95;;;1.90;;
80842;SDS011;70255;53.686;10.778;2023-06-14T13:58:33;5.43;;;1.87;;
80842;SDS011;70255;53.686;10.778;2023-06-14T14:00:58;6.53;;;2.20;;
80842;SDS011;70255;53.686;10.778;2023-06-14T14:03:24;6.82;;;2.08;;
80842;SDS011;70255;53.686;10.778;2023-06-14T14:05:50;8.02;;;1.70;;
80842;SDS011;70255;53.686;10.778;2023-06-14T14:08:15;6.00;;;2.10;;
80842;SDS011;70255;53.686;10.778;2023-06-14T14:10:40;3.90;;;1.50;;
80842;SDS011;70255;53.686;10.778;2023-06-14T14:13:06;4.90;;;2.00;;
80842;SDS011;70255;53.686;10.778;2023-06-14T14:15:31;7.10;;;1.77;;
80842;SDS011;70255;53.686;10.778;2023-06-14T14:17:59;4.57;;;2.08;;
80842;SDS011;70255;53.686;10.778;2023-06-14T14:20:25;3.90;;;1.63;;
80842;SDS011;70255;53.686;10.778;2023-06-14T14:22:50;4.50;;;2.00;;
80842;SDS011;70255;53.686;10.778;2023-06-14T14:25:15;5.23;;;2.07;;
80842;SDS011;70255;53.686;10.778;2023-06-14T14:27:40;4.80;;;1.77;;
80842;SDS011;70255;53.686;10.778;2023-06-14T14:30:06;8.35;;;1.77;;
80842;SDS011;70255;53.686;10.778;2023-06-14T14:32:31;4.38;;;2.10;;
80842;SDS011;70255;53.686;10.778;2023-06-14T14:34:57;7.70;;;2.00;;